sensor_id;sensor_type;location;lat;lon;timestamp;P1;durP1;ratioP1;P2;durP2;ratioP2
80409;SDS011;69746;45.596;10.154;2023-06-14T00:02:15;3.75;;;3.03;;
80409;SDS011;69746;45.596;10.154;2023-06-14T00:04:44;3.80;;;3.15;;
80409;SDS011;69746;45.596;10.154;2023-06-14T00:07:11;4.93;;;3.05;;
80409;SDS011;69746;45.596;10.154;2023-06-14T00:09:40;4.10;;;3.20;;
80409;SDS011;69746;45.596;10.154;2023-06-14T00:12:06;4.25;;;2.85;;
80409;SDS011;69746;45.596;10.154;2023-06-14T00:17:00;4.40;;;3.20;;
80409;SDS011;69746;45.596;10.154;2023-06-14T00:19:26;4.22;;;3.20;;
80409;SDS011;69746;45.596;10.154;2023-06-14T00:21:52;4.03;;;2.92;;
80409;SDS011;69746;45.596;10.154;2023-06-14T00:24:19;4.20;;;3.00;;
80409;SDS011;69746;45.596;10.154;2023-06-14T00:26:45;4.20;;;3.15;;
80409;SDS011;69746;45.596;10.154;2023-06-14T00:29:10;3.90;;;3.10;;
80409;SDS011;69746;45.596;10.154;2023-06-14T00:31:36;3.85;;;3.00;;
80409;SDS011;69746;45.596;10.154;2023-06-14T00:34:05;3.63;;;2.92;;
80409;SDS011;69746;45.596;10.154;2023-06-14T00:36:31;3.45;;;2.80;;
80409;SDS011;69746;45.596;10.154;2023-06-14T00:38:58;3.92;;;3.28;;
80409;SDS011;69746;45.596;10.154;2023-06-14T00:41:24;4.20;;;3.13;;
80409;SDS011;69746;45.596;10.154;2023-06-14T00:43:50;4.20;;;2.97;;
80409;SDS011;69746;45.596;10.154;2023-06-14T00:46:18;4.18;;;3.35;;
80409;SDS011;69746;45.596;10.154;2023-06-14T00:48:45;3.53;;;2.90;;
80409;SDS011;69746;45.596;10.154;2023-06-14T00:51:12;4.93;;;3.47;;
80409;SDS011;69746;45.596;10.154;2023-06-14T00:53:44;5.15;;;3.05;;
80409;SDS011;69746;45.596;10.154;2023-06-14T00:56:12;4.00;;;3.17;;
80409;SDS011;69746;45.596;10.154;2023-06-14T00:58:40;4.20;;;3.17;;
80409;SDS011;69746;45.596;10.154;2023-06-14T01:01:10;3.60;;;3.03;;
80409;SDS011;69746;45.596;10.154;2023-06-14T01:03:36;3.40;;;2.65;;
80409;SDS011;69746;45.596;10.154;2023-06-14T01:06:05;4.43;;;2.88;;
80409;SDS011;69746;45.596;10.154;2023-06-14T01:08:49;3.88;;;2.83;;
80409;SDS011;69746;45.596;10.154;2023-06-14T01:11:21;4.57;;;3.40;;
80409;SDS011;69746;45.596;10.154;2023-06-14T01:13:51;3.55;;;2.85;;
80409;SDS011;69746;45.596;10.154;2023-06-14T01:16:19;3.97;;;2.90;;
80409;SDS011;69746;45.596;10.154;2023-06-14T01:18:45;5.57;;;2.80;;
80409;SDS011;69746;45.596;10.154;2023-06-14T01:21:21;5.03;;;3.00;;
80409;SDS011;69746;45.596;10.154;2023-06-14T01:23:51;3.60;;;3.05;;
80409;SDS011;69746;45.596;10.154;2023-06-14T01:26:21;3.97;;;3.00;;
80409;SDS011;69746;45.596;10.154;2023-06-14T01:28:50;3.63;;;3.03;;
80409;SDS011;69746;45.596;10.154;2023-06-14T01:31:20;3.63;;;2.78;;
80409;SDS011;69746;45.596;10.154;2023-06-14T01:33:47;3.65;;;2.80;;
80409;SDS011;69746;45.596;10.154;2023-06-14T01:36:17;4.18;;;3.05;;
80409;SDS011;69746;45.596;10.154;2023-06-14T01:38:48;3.13;;;2.67;;
80409;SDS011;69746;45.596;10.154;2023-06-14T01:41:16;3.85;;;2.95;;
80409;SDS011;69746;45.596;10.154;2023-06-14T01:43:44;3.53;;;3.05;;
80409;SDS011;69746;45.596;10.154;2023-06-14T01:46:11;4.00;;;3.13;;
80409;SDS011;69746;45.596;10.154;2023-06-14T01:48:40;4.20;;;2.63;;
80409;SDS011;69746;45.596;10.154;2023-06-14T01:51:06;3.42;;;2.92;;
80409;SDS011;69746;45.596;10.154;2023-06-14T01:53:32;3.65;;;3.05;;
80409;SDS011;69746;45.596;10.154;2023-06-14T01:55:58;3.97;;;2.95;;
80409;SDS011;69746;45.596;10.154;2023-06-14T01:58:24;3.78;;;2.80;;
80409;SDS011;69746;45.596;10.154;2023-06-14T02:00:50;3.30;;;2.70;;
80409;SDS011;69746;45.596;10.154;2023-06-14T02:03:18;4.15;;;3.03;;
80409;SDS011;69746;45.596;10.154;2023-06-14T02:05:45;4.20;;;3.15;;
80409;SDS011;69746;45.596;10.154;2023-06-14T02:08:11;3.45;;;2.55;;
80409;SDS011;69746;45.596;10.154;2023-06-14T02:10:38;3.92;;;2.85;;
80409;SDS011;69746;45.596;10.154;2023-06-14T02:13:04;3.70;;;2.78;;
80409;SDS011;69746;45.596;10.154;2023-06-14T02:15:30;3.97;;;2.72;;
80409;SDS011;69746;45.596;10.154;2023-06-14T02:18:03;3.17;;;2.45;;
80409;SDS011;69746;45.596;10.154;2023-06-14T02:22:55;3.40;;;2.63;;
80409;SDS011;69746;45.596;10.154;2023-06-14T02:25:21;3.33;;;2.78;;
80409;SDS011;69746;45.596;10.154;2023-06-14T02:27:50;3.42;;;2.45;;
80409;SDS011;69746;45.596;10.154;2023-06-14T02:30:16;3.85;;;3.00;;
80409;SDS011;69746;45.596;10.154;2023-06-14T02:32:43;4.07;;;2.65;;
80409;SDS011;69746;45.596;10.154;2023-06-14T02:35:09;3.25;;;2.53;;
80409;SDS011;69746;45.596;10.154;2023-06-14T02:37:35;4.57;;;2.70;;
80409;SDS011;69746;45.596;10.154;2023-06-14T02:40:01;3.35;;;2.70;;
80409;SDS011;69746;45.596;10.154;2023-06-14T02:42:27;3.83;;;3.00;;
80409;SDS011;69746;45.596;10.154;2023-06-14T02:44:52;3.80;;;2.67;;
80409;SDS011;69746;45.596;10.154;2023-06-14T02:47:21;3.05;;;2.33;;
80409;SDS011;69746;45.596;10.154;2023-06-14T02:49:47;3.55;;;2.78;;
80409;SDS011;69746;45.596;10.154;2023-06-14T02:52:13;2.88;;;2.40;;
80409;SDS011;69746;45.596;10.154;2023-06-14T02:54:39;3.38;;;2.20;;
80409;SDS011;69746;45.596;10.154;2023-06-14T02:57:05;3.83;;;2.75;;
80409;SDS011;69746;45.596;10.154;2023-06-14T02:59:33;3.85;;;2.50;;
80409;SDS011;69746;45.596;10.154;2023-06-14T03:02:00;4.00;;;2.30;;
80409;SDS011;69746;45.596;10.154;2023-06-14T03:04:26;3.25;;;2.60;;
80409;SDS011;69746;45.596;10.154;2023-06-14T03:06:53;3.47;;;2.58;;
80409;SDS011;69746;45.596;10.154;2023-06-14T03:09:20;3.72;;;2.55;;
80409;SDS011;69746;45.596;10.154;2023-06-14T03:11:46;3.15;;;2.50;;
80409;SDS011;69746;45.596;10.154;2023-06-14T03:14:12;2.85;;;2.25;;
80409;SDS011;69746;45.596;10.154;2023-06-14T03:16:38;3.03;;;2.40;;
80409;SDS011;69746;45.596;10.154;2023-06-14T03:19:09;3.78;;;2.45;;
80409;SDS011;69746;45.596;10.154;2023-06-14T03:21:35;2.78;;;2.33;;
80409;SDS011;69746;45.596;10.154;2023-06-14T03:24:02;3.80;;;2.60;;
80409;SDS011;69746;45.596;10.154;2023-06-14T03:26:28;3.95;;;2.50;;
80409;SDS011;69746;45.596;10.154;2023-06-14T03:28:59;3.38;;;2.33;;
80409;SDS011;69746;45.596;10.154;2023-06-14T03:31:25;3.15;;;2.42;;
80409;SDS011;69746;45.596;10.154;2023-06-14T03:33:51;3.05;;;2.38;;
80409;SDS011;69746;45.596;10.154;2023-06-14T03:36:19;2.83;;;2.45;;
80409;SDS011;69746;45.596;10.154;2023-06-14T03:38:45;2.92;;;2.30;;
80409;SDS011;69746;45.596;10.154;2023-06-14T03:41:11;2.85;;;2.13;;
80409;SDS011;69746;45.596;10.154;2023-06-14T03:43:37;3.33;;;2.53;;
80409;SDS011;69746;45.596;10.154;2023-06-14T03:46:03;3.33;;;2.70;;
80409;SDS011;69746;45.596;10.154;2023-06-14T03:48:29;2.83;;;2.53;;
80409;SDS011;69746;45.596;10.154;2023-06-14T03:50:55;3.28;;;2.30;;
80409;SDS011;69746;45.596;10.154;2023-06-14T03:53:21;2.80;;;2.35;;
80409;SDS011;69746;45.596;10.154;2023-06-14T03:55:49;4.47;;;2.67;;
80409;SDS011;69746;45.596;10.154;2023-06-14T03:58:18;3.58;;;2.22;;
80409;SDS011;69746;45.596;10.154;2023-06-14T04:00:44;3.88;;;2.35;;
80409;SDS011;69746;45.596;10.154;2023-06-14T04:03:14;3.20;;;2.55;;
80409;SDS011;69746;45.596;10.154;2023-06-14T04:05:41;2.88;;;2.47;;
80409;SDS011;69746;45.596;10.154;2023-06-14T04:08:09;2.63;;;2.35;;
80409;SDS011;69746;45.596;10.154;2023-06-14T04:10:35;3.95;;;2.42;;
80409;SDS011;69746;45.596;10.154;2023-06-14T04:13:01;2.70;;;2.30;;
80409;SDS011;69746;45.596;10.154;2023-06-14T04:15:27;2.75;;;2.15;;
80409;SDS011;69746;45.596;10.154;2023-06-14T04:17:53;2.60;;;2.10;;
80409;SDS011;69746;45.596;10.154;2023-06-14T04:20:22;2.97;;;2.30;;
80409;SDS011;69746;45.596;10.154;2023-06-14T04:22:51;2.95;;;2.50;;
80409;SDS011;69746;45.596;10.154;2023-06-14T04:25:22;3.35;;;2.53;;
80409;SDS011;69746;45.596;10.154;2023-06-14T04:27:50;2.80;;;2.33;;
80409;SDS011;69746;45.596;10.154;2023-06-14T04:30:17;3.03;;;2.33;;
80409;SDS011;69746;45.596;10.154;2023-06-14T04:32:43;2.92;;;2.20;;
80409;SDS011;69746;45.596;10.154;2023-06-14T04:35:09;2.80;;;2.38;;
80409;SDS011;69746;45.596;10.154;2023-06-14T04:37:35;2.42;;;2.00;;
80409;SDS011;69746;45.596;10.154;2023-06-14T04:40:05;3.22;;;2.65;;
80409;SDS011;69746;45.596;10.154;2023-06-14T04:42:31;3.28;;;2.50;;
80409;SDS011;69746;45.596;10.154;2023-06-14T04:44:57;3.20;;;2.50;;
80409;SDS011;69746;45.596;10.154;2023-06-14T04:47:23;3.00;;;2.47;;
80409;SDS011;69746;45.596;10.154;2023-06-14T04:49:56;2.70;;;2.40;;
80409;SDS011;69746;45.596;10.154;2023-06-14T04:52:23;2.70;;;2.20;;
80409;SDS011;69746;45.596;10.154;2023-06-14T04:54:51;3.00;;;2.40;;
80409;SDS011;69746;45.596;10.154;2023-06-14T04:57:19;3.08;;;2.45;;
80409;SDS011;69746;45.596;10.154;2023-06-14T04:59:49;2.72;;;2.30;;
80409;SDS011;69746;45.596;10.154;2023-06-14T05:02:21;2.83;;;2.28;;
80409;SDS011;69746;45.596;10.154;2023-06-14T05:04:48;2.35;;;2.03;;
80409;SDS011;69746;45.596;10.154;2023-06-14T05:07:14;2.63;;;2.10;;
80409;SDS011;69746;45.596;10.154;2023-06-14T05:09:40;2.83;;;2.35;;
80409;SDS011;69746;45.596;10.154;2023-06-14T05:12:09;2.28;;;1.92;;
80409;SDS011;69746;45.596;10.154;2023-06-14T05:14:36;2.70;;;2.03;;
80409;SDS011;69746;45.596;10.154;2023-06-14T05:17:02;2.60;;;2.15;;
80409;SDS011;69746;45.596;10.154;2023-06-14T05:19:28;2.90;;;2.25;;
80409;SDS011;69746;45.596;10.154;2023-06-14T05:21:54;3.05;;;2.42;;
80409;SDS011;69746;45.596;10.154;2023-06-14T05:24:20;3.40;;;2.13;;
80409;SDS011;69746;45.596;10.154;2023-06-14T05:26:46;2.78;;;2.17;;
80409;SDS011;69746;45.596;10.154;2023-06-14T05:29:12;3.00;;;2.40;;
80409;SDS011;69746;45.596;10.154;2023-06-14T05:31:38;2.65;;;2.05;;
80409;SDS011;69746;45.596;10.154;2023-06-14T05:34:06;2.70;;;2.17;;
80409;SDS011;69746;45.596;10.154;2023-06-14T05:36:32;2.78;;;2.30;;
80409;SDS011;69746;45.596;10.154;2023-06-14T05:38:58;2.70;;;2.08;;
80409;SDS011;69746;45.596;10.154;2023-06-14T05:41:27;2.70;;;2.10;;
80409;SDS011;69746;45.596;10.154;2023-06-14T05:43:56;3.03;;;2.30;;
80409;SDS011;69746;45.596;10.154;2023-06-14T05:46:22;2.45;;;1.83;;
80409;SDS011;69746;45.596;10.154;2023-06-14T05:48:54;3.08;;;2.30;;
80409;SDS011;69746;45.596;10.154;2023-06-14T05:51:20;2.80;;;1.83;;
80409;SDS011;69746;45.596;10.154;2023-06-14T05:53:47;3.20;;;2.30;;
80409;SDS011;69746;45.596;10.154;2023-06-14T05:56:14;3.17;;;2.38;;
80409;SDS011;69746;45.596;10.154;2023-06-14T05:58:41;3.00;;;2.20;;
80409;SDS011;69746;45.596;10.154;2023-06-14T06:01:07;3.90;;;2.67;;
80409;SDS011;69746;45.596;10.154;2023-06-14T06:03:32;2.75;;;2.17;;
80409;SDS011;69746;45.596;10.154;2023-06-14T06:05:59;3.20;;;2.03;;
80409;SDS011;69746;45.596;10.154;2023-06-14T06:08:25;3.38;;;2.30;;
80409;SDS011;69746;45.596;10.154;2023-06-14T06:10:52;2.90;;;2.33;;
80409;SDS011;69746;45.596;10.154;2023-06-14T06:13:19;2.67;;;2.10;;
80409;SDS011;69746;45.596;10.154;2023-06-14T06:15:44;2.88;;;2.15;;
80409;SDS011;69746;45.596;10.154;2023-06-14T06:18:11;3.22;;;2.40;;
80409;SDS011;69746;45.596;10.154;2023-06-14T06:20:37;2.22;;;1.83;;
80409;SDS011;69746;45.596;10.154;2023-06-14T06:23:03;4.40;;;2.35;;
80409;SDS011;69746;45.596;10.154;2023-06-14T06:25:29;2.75;;;2.13;;
80409;SDS011;69746;45.596;10.154;2023-06-14T06:27:56;3.08;;;2.28;;
80409;SDS011;69746;45.596;10.154;2023-06-14T06:30:26;3.05;;;2.20;;
80409;SDS011;69746;45.596;10.154;2023-06-14T06:32:54;4.70;;;2.38;;
80409;SDS011;69746;45.596;10.154;2023-06-14T06:35:21;3.33;;;2.25;;
80409;SDS011;69746;45.596;10.154;2023-06-14T06:37:46;3.22;;;2.30;;
80409;SDS011;69746;45.596;10.154;2023-06-14T06:40:15;3.28;;;2.10;;
80409;SDS011;69746;45.596;10.154;2023-06-14T06:42:41;2.55;;;1.85;;
80409;SDS011;69746;45.596;10.154;2023-06-14T06:45:08;3.30;;;2.35;;
80409;SDS011;69746;45.596;10.154;2023-06-14T06:47:35;2.78;;;1.95;;
80409;SDS011;69746;45.596;10.154;2023-06-14T06:50:01;4.15;;;2.03;;
80409;SDS011;69746;45.596;10.154;2023-06-14T06:52:28;2.60;;;1.92;;
80409;SDS011;69746;45.596;10.154;2023-06-14T06:54:54;3.10;;;2.22;;
80409;SDS011;69746;45.596;10.154;2023-06-14T06:57:21;2.88;;;2.10;;
80409;SDS011;69746;45.596;10.154;2023-06-14T06:59:50;3.03;;;2.13;;
80409;SDS011;69746;45.596;10.154;2023-06-14T07:02:16;3.00;;;2.22;;
80409;SDS011;69746;45.596;10.154;2023-06-14T07:04:42;2.50;;;2.05;;
80409;SDS011;69746;45.596;10.154;2023-06-14T07:07:07;3.00;;;2.00;;
80409;SDS011;69746;45.596;10.154;2023-06-14T07:09:36;3.55;;;2.60;;
80409;SDS011;69746;45.596;10.154;2023-06-14T07:12:02;3.08;;;1.90;;
80409;SDS011;69746;45.596;10.154;2023-06-14T07:14:30;3.03;;;1.98;;
80409;SDS011;69746;45.596;10.154;2023-06-14T07:16:57;2.90;;;2.13;;
80409;SDS011;69746;45.596;10.154;2023-06-14T07:19:23;2.85;;;1.95;;
80409;SDS011;69746;45.596;10.154;2023-06-14T07:21:49;3.40;;;2.10;;
80409;SDS011;69746;45.596;10.154;2023-06-14T07:24:15;2.70;;;2.13;;
80409;SDS011;69746;45.596;10.154;2023-06-14T07:26:47;3.65;;;2.13;;
80409;SDS011;69746;45.596;10.154;2023-06-14T07:29:17;3.88;;;2.40;;
80409;SDS011;69746;45.596;10.154;2023-06-14T07:31:43;2.65;;;2.20;;
80409;SDS011;69746;45.596;10.154;2023-06-14T07:34:09;3.75;;;2.38;;
80409;SDS011;69746;45.596;10.154;2023-06-14T07:36:36;3.08;;;2.22;;
80409;SDS011;69746;45.596;10.154;2023-06-14T07:39:02;3.17;;;1.92;;
80409;SDS011;69746;45.596;10.154;2023-06-14T07:41:28;2.17;;;1.73;;
80409;SDS011;69746;45.596;10.154;2023-06-14T07:43:58;3.05;;;1.95;;
80409;SDS011;69746;45.596;10.154;2023-06-14T07:46:24;2.40;;;2.13;;
80409;SDS011;69746;45.596;10.154;2023-06-14T07:48:50;2.60;;;1.88;;
80409;SDS011;69746;45.596;10.154;2023-06-14T07:51:16;2.65;;;1.98;;
80409;SDS011;69746;45.596;10.154;2023-06-14T07:53:42;2.60;;;2.05;;
80409;SDS011;69746;45.596;10.154;2023-06-14T07:56:08;2.60;;;2.10;;
80409;SDS011;69746;45.596;10.154;2023-06-14T07:58:36;2.20;;;1.95;;
80409;SDS011;69746;45.596;10.154;2023-06-14T08:01:02;3.00;;;2.08;;
80409;SDS011;69746;45.596;10.154;2023-06-14T08:03:31;2.63;;;1.95;;
80409;SDS011;69746;45.596;10.154;2023-06-14T08:05:57;2.53;;;1.92;;
80409;SDS011;69746;45.596;10.154;2023-06-14T08:08:23;3.42;;;2.13;;
80409;SDS011;69746;45.596;10.154;2023-06-14T08:10:49;2.88;;;2.00;;
80409;SDS011;69746;45.596;10.154;2023-06-14T08:13:15;3.53;;;2.15;;
80409;SDS011;69746;45.596;10.154;2023-06-14T08:15:44;2.63;;;1.98;;
80409;SDS011;69746;45.596;10.154;2023-06-14T08:18:10;2.40;;;1.95;;
80409;SDS011;69746;45.596;10.154;2023-06-14T08:20:36;3.38;;;2.03;;
80409;SDS011;69746;45.596;10.154;2023-06-14T08:23:02;2.75;;;1.98;;
80409;SDS011;69746;45.596;10.154;2023-06-14T08:25:30;3.33;;;2.38;;
80409;SDS011;69746;45.596;10.154;2023-06-14T08:27:56;2.47;;;2.08;;
80409;SDS011;69746;45.596;10.154;2023-06-14T08:30:22;3.10;;;2.13;;
80409;SDS011;69746;45.596;10.154;2023-06-14T08:32:48;3.10;;;1.95;;
80409;SDS011;69746;45.596;10.154;2023-06-14T08:35:14;2.50;;;1.73;;
80409;SDS011;69746;45.596;10.154;2023-06-14T08:37:40;2.80;;;1.92;;
80409;SDS011;69746;45.596;10.154;2023-06-14T08:40:21;2.63;;;1.98;;
80409;SDS011;69746;45.596;10.154;2023-06-14T08:42:52;2.63;;;1.98;;
80409;SDS011;69746;45.596;10.154;2023-06-14T08:45:19;2.80;;;2.17;;
80409;SDS011;69746;45.596;10.154;2023-06-14T08:47:47;2.72;;;2.00;;
80409;SDS011;69746;45.596;10.154;2023-06-14T08:50:24;2.30;;;1.75;;
80409;SDS011;69746;45.596;10.154;2023-06-14T08:52:55;2.83;;;2.30;;
80409;SDS011;69746;45.596;10.154;2023-06-14T08:55:25;2.58;;;2.08;;
80409;SDS011;69746;45.596;10.154;2023-06-14T08:57:55;3.97;;;2.15;;
80409;SDS011;69746;45.596;10.154;2023-06-14T09:00:26;2.85;;;2.03;;
80409;SDS011;69746;45.596;10.154;2023-06-14T09:02:55;3.00;;;2.13;;
80409;SDS011;69746;45.596;10.154;2023-06-14T09:05:26;2.60;;;2.03;;
80409;SDS011;69746;45.596;10.154;2023-06-14T09:07:53;2.72;;;2.00;;
80409;SDS011;69746;45.596;10.154;2023-06-14T09:10:20;2.65;;;1.90;;
80409;SDS011;69746;45.596;10.154;2023-06-14T09:12:47;2.40;;;2.00;;
80409;SDS011;69746;45.596;10.154;2023-06-14T09:15:14;2.55;;;1.88;;
80409;SDS011;69746;45.596;10.154;2023-06-14T09:17:40;3.83;;;2.28;;
80409;SDS011;69746;45.596;10.154;2023-06-14T09:20:09;2.50;;;1.90;;
80409;SDS011;69746;45.596;10.154;2023-06-14T09:22:36;2.63;;;1.77;;
80409;SDS011;69746;45.596;10.154;2023-06-14T09:27:31;2.40;;;1.85;;
80409;SDS011;69746;45.596;10.154;2023-06-14T09:32:25;2.53;;;2.13;;
80409;SDS011;69746;45.596;10.154;2023-06-14T09:34:51;3.22;;;1.88;;
80409;SDS011;69746;45.596;10.154;2023-06-14T09:37:28;2.40;;;2.00;;
80409;SDS011;69746;45.596;10.154;2023-06-14T09:39:55;2.40;;;1.75;;
80409;SDS011;69746;45.596;10.154;2023-06-14T09:42:21;2.22;;;1.90;;
80409;SDS011;69746;45.596;10.154;2023-06-14T09:44:51;2.40;;;2.10;;
80409;SDS011;69746;45.596;10.154;2023-06-14T09:47:19;2.53;;;1.85;;
80409;SDS011;69746;45.596;10.154;2023-06-14T09:49:46;2.65;;;1.95;;
80409;SDS011;69746;45.596;10.154;2023-06-14T09:52:16;2.75;;;1.70;;
80409;SDS011;69746;45.596;10.154;2023-06-14T09:54:45;2.13;;;1.80;;
80409;SDS011;69746;45.596;10.154;2023-06-14T09:57:13;2.40;;;1.73;;
80409;SDS011;69746;45.596;10.154;2023-06-14T09:59:41;2.97;;;2.05;;
80409;SDS011;69746;45.596;10.154;2023-06-14T10:02:27;2.83;;;2.05;;
80409;SDS011;69746;45.596;10.154;2023-06-14T10:05:06;3.30;;;2.20;;
80409;SDS011;69746;45.596;10.154;2023-06-14T10:07:42;2.88;;;2.17;;
80409;SDS011;69746;45.596;10.154;2023-06-14T10:10:11;2.53;;;1.98;;
80409;SDS011;69746;45.596;10.154;2023-06-14T10:12:37;2.35;;;1.73;;
80409;SDS011;69746;45.596;10.154;2023-06-14T10:15:03;2.90;;;2.03;;
80409;SDS011;69746;45.596;10.154;2023-06-14T10:17:39;2.40;;;1.85;;
80409;SDS011;69746;45.596;10.154;2023-06-14T10:20:30;2.35;;;1.83;;
80409;SDS011;69746;45.596;10.154;2023-06-14T10:23:07;2.72;;;2.00;;
80409;SDS011;69746;45.596;10.154;2023-06-14T10:25:56;2.53;;;1.92;;
80409;SDS011;69746;45.596;10.154;2023-06-14T10:31:10;3.00;;;2.30;;
80409;SDS011;69746;45.596;10.154;2023-06-14T10:33:39;2.10;;;1.73;;
80409;SDS011;69746;45.596;10.154;2023-06-14T10:38:57;2.50;;;1.70;;
80409;SDS011;69746;45.596;10.154;2023-06-14T10:41:29;2.28;;;1.63;;
80409;SDS011;69746;45.596;10.154;2023-06-14T10:46:54;2.03;;;1.63;;
80409;SDS011;69746;45.596;10.154;2023-06-14T10:49:38;2.53;;;2.03;;
80409;SDS011;69746;45.596;10.154;2023-06-14T10:52:16;2.78;;;1.80;;
80409;SDS011;69746;45.596;10.154;2023-06-14T10:55:05;2.45;;;1.73;;
80409;SDS011;69746;45.596;10.154;2023-06-14T10:57:47;2.35;;;2.00;;
80409;SDS011;69746;45.596;10.154;2023-06-14T11:00:19;2.28;;;1.95;;
80409;SDS011;69746;45.596;10.154;2023-06-14T11:11:06;2.63;;;1.95;;
80409;SDS011;69746;45.596;10.154;2023-06-14T11:15:59;2.17;;;1.73;;
80409;SDS011;69746;45.596;10.154;2023-06-14T11:18:28;2.55;;;1.90;;
80409;SDS011;69746;45.596;10.154;2023-06-14T11:20:54;2.38;;;2.00;;
80409;SDS011;69746;45.596;10.154;2023-06-14T11:23:26;2.50;;;1.83;;
80409;SDS011;69746;45.596;10.154;2023-06-14T11:25:55;2.47;;;1.95;;
80409;SDS011;69746;45.596;10.154;2023-06-14T11:28:21;2.42;;;1.65;;
80409;SDS011;69746;45.596;10.154;2023-06-14T11:30:48;2.20;;;1.65;;
80409;SDS011;69746;45.596;10.154;2023-06-14T11:33:25;3.05;;;1.70;;
80409;SDS011;69746;45.596;10.154;2023-06-14T11:35:57;2.75;;;1.73;;
80409;SDS011;69746;45.596;10.154;2023-06-14T11:38:24;2.20;;;1.80;;
80409;SDS011;69746;45.596;10.154;2023-06-14T11:40:52;2.63;;;1.85;;
80409;SDS011;69746;45.596;10.154;2023-06-14T11:43:18;2.15;;;1.60;;
80409;SDS011;69746;45.596;10.154;2023-06-14T11:45:50;2.10;;;1.80;;
80409;SDS011;69746;45.596;10.154;2023-06-14T11:48:16;2.30;;;1.73;;
80409;SDS011;69746;45.596;10.154;2023-06-14T11:50:44;2.13;;;1.75;;
80409;SDS011;69746;45.596;10.154;2023-06-14T11:53:10;2.40;;;1.65;;
80409;SDS011;69746;45.596;10.154;2023-06-14T11:55:37;2.20;;;1.75;;
80409;SDS011;69746;45.596;10.154;2023-06-14T11:58:04;2.08;;;1.73;;
80409;SDS011;69746;45.596;10.154;2023-06-14T12:00:30;2.50;;;1.77;;
80409;SDS011;69746;45.596;10.154;2023-06-14T12:02:59;2.90;;;1.92;;
80409;SDS011;69746;45.596;10.154;2023-06-14T12:05:25;2.25;;;1.65;;
80409;SDS011;69746;45.596;10.154;2023-06-14T12:07:58;2.63;;;1.88;;
80409;SDS011;69746;45.596;10.154;2023-06-14T12:10:28;2.30;;;1.70;;
80409;SDS011;69746;45.596;10.154;2023-06-14T12:12:58;2.20;;;1.75;;
80409;SDS011;69746;45.596;10.154;2023-06-14T12:15:27;2.38;;;1.83;;
80409;SDS011;69746;45.596;10.154;2023-06-14T12:17:57;2.10;;;1.58;;
80409;SDS011;69746;45.596;10.154;2023-06-14T12:20:28;2.58;;;1.92;;
80409;SDS011;69746;45.596;10.154;2023-06-14T12:22:57;2.97;;;1.70;;
80409;SDS011;69746;45.596;10.154;2023-06-14T12:25:28;2.35;;;1.73;;
80409;SDS011;69746;45.596;10.154;2023-06-14T12:27:59;2.35;;;1.77;;
80409;SDS011;69746;45.596;10.154;2023-06-14T12:30:30;2.80;;;2.10;;
80409;SDS011;69746;45.596;10.154;2023-06-14T12:32:58;2.35;;;1.77;;
80409;SDS011;69746;45.596;10.154;2023-06-14T12:35:25;2.10;;;1.63;;
80409;SDS011;69746;45.596;10.154;2023-06-14T12:37:51;2.53;;;1.80;;
80409;SDS011;69746;45.596;10.154;2023-06-14T12:40:17;2.10;;;1.60;;
80409;SDS011;69746;45.596;10.154;2023-06-14T12:42:46;2.30;;;1.60;;
80409;SDS011;69746;45.596;10.154;2023-06-14T12:45:12;2.63;;;1.70;;
80409;SDS011;69746;45.596;10.154;2023-06-14T12:47:38;3.55;;;1.75;;
80409;SDS011;69746;45.596;10.154;2023-06-14T12:50:07;2.10;;;1.67;;
80409;SDS011;69746;45.596;10.154;2023-06-14T12:52:35;2.40;;;1.70;;
80409;SDS011;69746;45.596;10.154;2023-06-14T12:55:02;2.47;;;1.85;;
80409;SDS011;69746;45.596;10.154;2023-06-14T12:57:32;2.67;;;1.83;;
80409;SDS011;69746;45.596;10.154;2023-06-14T12:59:59;2.33;;;1.90;;
80409;SDS011;69746;45.596;10.154;2023-06-14T13:02:25;2.55;;;1.60;;
80409;SDS011;69746;45.596;10.154;2023-06-14T13:04:52;2.70;;;1.77;;
80409;SDS011;69746;45.596;10.154;2023-06-14T13:07:20;2.50;;;1.90;;
80409;SDS011;69746;45.596;10.154;2023-06-14T13:09:45;2.17;;;1.63;;
80409;SDS011;69746;45.596;10.154;2023-06-14T13:12:11;2.00;;;1.70;;
80409;SDS011;69746;45.596;10.154;2023-06-14T13:14:40;2.90;;;1.83;;
80409;SDS011;69746;45.596;10.154;2023-06-14T13:17:09;1.92;;;1.60;;
80409;SDS011;69746;45.596;10.154;2023-06-14T13:19:36;2.83;;;1.90;;
80409;SDS011;69746;45.596;10.154;2023-06-14T13:22:02;2.60;;;1.70;;
80409;SDS011;69746;45.596;10.154;2023-06-14T13:24:29;2.00;;;1.40;;
80409;SDS011;69746;45.596;10.154;2023-06-14T13:26:58;2.15;;;1.65;;
80409;SDS011;69746;45.596;10.154;2023-06-14T13:29:24;2.10;;;1.80;;
80409;SDS011;69746;45.596;10.154;2023-06-14T13:31:50;2.22;;;1.70;;
80409;SDS011;69746;45.596;10.154;2023-06-14T13:34:16;1.95;;;1.60;;
80409;SDS011;69746;45.596;10.154;2023-06-14T13:36:45;2.30;;;1.80;;
80409;SDS011;69746;45.596;10.154;2023-06-14T13:39:11;2.10;;;1.75;;
80409;SDS011;69746;45.596;10.154;2023-06-14T13:41:37;2.33;;;1.83;;
80409;SDS011;69746;45.596;10.154;2023-06-14T13:44:03;2.00;;;1.60;;
80409;SDS011;69746;45.596;10.154;2023-06-14T13:46:29;2.00;;;1.60;;
80409;SDS011;69746;45.596;10.154;2023-06-14T13:48:57;2.60;;;1.83;;
80409;SDS011;69746;45.596;10.154;2023-06-14T13:51:24;2.15;;;1.55;;
80409;SDS011;69746;45.596;10.154;2023-06-14T13:56:18;2.20;;;1.80;;
80409;SDS011;69746;45.596;10.154;2023-06-14T13:58:45;2.25;;;1.80;;
80409;SDS011;69746;45.596;10.154;2023-06-14T14:01:10;2.05;;;1.38;;
80409;SDS011;69746;45.596;10.154;2023-06-14T14:03:37;1.80;;;1.30;;
80409;SDS011;69746;45.596;10.154;2023-06-14T14:06:03;2.38;;;1.70;;
80409;SDS011;69746;45.596;10.154;2023-06-14T14:08:30;2.75;;;1.90;;
80409;SDS011;69746;45.596;10.154;2023-06-14T14:10:58;2.80;;;1.60;;
80409;SDS011;69746;45.596;10.154;2023-06-14T14:13:24;2.10;;;1.60;;
80409;SDS011;69746;45.596;10.154;2023-06-14T14:15:50;2.08;;;1.60;;
80409;SDS011;69746;45.596;10.154;2023-06-14T14:18:17;1.92;;;1.42;;
80409;SDS011;69746;45.596;10.154;2023-06-14T14:20:45;2.30;;;1.73;;
80409;SDS011;69746;45.596;10.154;2023-06-14T14:23:12;1.92;;;1.52;;
80409;SDS011;69746;45.596;10.154;2023-06-14T14:25:38;2.20;;;1.70;;
80409;SDS011;69746;45.596;10.154;2023-06-14T14:28:06;2.15;;;1.50;;
80409;SDS011;69746;45.596;10.154;2023-06-14T14:30:35;2.03;;;1.63;;
80409;SDS011;69746;45.596;10.154;2023-06-14T14:33:03;2.10;;;1.60;;
80409;SDS011;69746;45.596;10.154;2023-06-14T14:35:29;2.25;;;1.73;;
80409;SDS011;69746;45.596;10.154;2023-06-14T14:37:55;2.25;;;1.70;;
80409;SDS011;69746;45.596;10.154;2023-06-14T14:40:24;2.05;;;1.40;;
80409;SDS011;69746;45.596;10.154;2023-06-14T14:42:50;2.00;;;1.50;;
80409;SDS011;69746;45.596;10.154;2023-06-14T14:45:23;2.00;;;1.45;;
80409;SDS011;69746;45.596;10.154;2023-06-14T14:47:49;2.03;;;1.42;;
80409;SDS011;69746;45.596;10.154;2023-06-14T14:50:15;2.28;;;1.90;;
80409;SDS011;69746;45.596;10.154;2023-06-14T14:52:42;1.98;;;1.60;;
80409;SDS011;69746;45.596;10.154;2023-06-14T14:55:08;1.90;;;1.52;;
80409;SDS011;69746;45.596;10.154;2023-06-14T14:57:34;1.98;;;1.42;;
80409;SDS011;69746;45.596;10.154;2023-06-14T15:00:02;2.08;;;1.70;;
80409;SDS011;69746;45.596;10.154;2023-06-14T15:02:28;1.83;;;1.30;;
80409;SDS011;69746;45.596;10.154;2023-06-14T15:04:55;2.10;;;1.60;;
80409;SDS011;69746;45.596;10.154;2023-06-14T15:07:28;2.25;;;1.67;;
80409;SDS011;69746;45.596;10.154;2023-06-14T15:09:57;2.15;;;1.60;;